Time;durP1;ratioP1;P1;durP2;ratioP2;P2;SDS_P1;SDS_P2;PMS_P1;PMS_P2;Temp;Humidity;BMP_temperature;BMP_pressure;BME280_temperature;BME280_humidity;BME280_pressure;Samples;Min_cycle;Max_cycle;Signal;HPM_P1;HPM_P2
2021/05/23 00:00:28;;;;;;;;;;;;;;;9.47;100.00;98292.69;5055435;28;19933;-62
2021/05/23 00:02:54;;;;;;;;;;;;;;;9.56;100.00;98296.66;5054237;28;19923;-63
2021/05/23 00:05:20;;;;;;;;;;;;;;;9.67;100.00;98293.63;5056071;28;19924;-62
2021/05/23 00:08:00;;;;;;;;;;;;;;;9.40;100.00;98298.97;5034871;28;19987;-62
2021/05/23 00:10:25;;;;;;;;;;;;;;;9.53;100.00;98296.75;5054433;28;19921;-62
2021/05/23 00:12:52;;;;;;;;;;;;;;;9.56;100.00;98302.63;5055498;28;19939;-62
2021/05/23 00:15:25;;;;;;;;;;;;;;;9.57;100.00;98300.88;5052025;28;19978;-63
2021/05/23 00:17:51;;;;;;;;;;;;;;;9.34;100.00;98307.75;5055447;28;19921;-62
2021/05/23 00:20:16;;;;;;;;;;;;;;;9.16;100.00;98304.13;5035855;28;19924;-62
2021/05/23 00:22:43;;;;;;;;;;;;;;;9.29;100.00;98299.38;5058203;28;19947;-63
2021/05/23 00:25:08;;;;;;;;;;;;;;;9.37;100.00;98293.94;5037248;28;20377;-62
2021/05/23 00:27:34;;;;;;;;;;;;;;;9.44;100.00;98303.06;5055997;28;19925;-62
2021/05/23 00:29:59;;;;;;;;;;;;;;;9.20;100.00;98297.16;5036389;28;20014;-62
2021/05/23 00:32:24;;;;;;;;;;;;;;;9.19;100.00;98303.16;5035672;28;19916;-63
2021/05/23 00:34:50;;;;;;;;;;;;;;;9.08;100.00;98293.31;5056729;28;19952;-64
2021/05/23 00:37:15;;;;;;;;;;;;;;;9.29;100.00;98298.53;5037316;28;20285;-62
2021/05/23 00:39:40;;;;;;;;;;;;;;;9.15;100.00;98292.19;5056178;28;19924;-62
2021/05/23 00:42:09;;;;;;;;;;;;;;;9.15;100.00;98292.19;5056832;28;20285;-63
2021/05/23 00:44:34;;;;;;;;;;;;;;;9.20;100.00;98300.56;5039526;28;19921;-63
2021/05/23 00:47:00;;;;;;;;;;;;;;;9.18;100.00;98286.94;5056181;28;19967;-62
2021/05/23 00:49:25;;;;;;;;;;;;;;;9.22;100.00;98287.66;5056670;28;19923;-62
2021/05/23 00:51:51;;;;;;;;;;;;;;;9.29;100.00;98289.09;5053185;28;20015;-63
2021/05/23 00:54:17;;;;;;;;;;;;;;;9.31;100.00;98296.75;5034405;28;20011;-62
2021/05/23 00:56:43;;;;;;;;;;;;;;;9.13;100.00;98304.25;5039895;28;20007;-62
2021/05/23 00:59:09;;;;;;;;;;;;;;;9.36;100.00;98300.81;5057334;28;20377;-63
2021/05/23 01:01:44;;;;;;;;;;;;;;;9.39;100.00;98297.28;5055262;28;19926;-62
2021/05/23 01:04:09;;;;;;;;;;;;;;;9.27;100.00;98300.34;5051125;28;19964;-63
2021/05/23 01:06:34;;;;;;;;;;;;;;;9.23;100.00;98306.47;5034896;28;19955;-62
2021/05/23 01:09:00;;;;;;;;;;;;;;;9.16;100.00;98304.13;5056609;28;19939;-63
2021/05/23 01:11:28;;;;;;;;;;;;;;;8.98;100.00;98297.94;5035843;28;19966;-62
2021/05/23 01:13:57;;;;;;;;;;;;;;;8.86;100.00;98300.97;5055465;28;19917;-62
2021/05/23 01:16:42;;;;;;;;;;;;;;;9.09;100.00;98302.69;5052207;28;19928;-62
2021/05/23 01:19:10;;;;;;;;;;;;;;;9.01;100.00;98299.59;5040436;28;20321;-63
2021/05/23 01:21:41;;;;;;;;;;;;;;;8.90;100.00;98301.69;5035048;28;20369;-62
2021/05/23 01:24:09;;;;;;;;;;;;;;;8.85;100.00;98314.72;5015048;28;19963;-62
2021/05/23 01:26:37;;;;;;;;;;;;;;;9.07;100.00;98308.78;5052535;28;19927;-61
2021/05/23 01:29:06;;;;;;;;;;;;;;;9.06;100.00;98313.09;5054407;28;19965;-62
2021/05/23 01:31:31;;;;;;;;;;;;;;;9.16;100.00;98316.13;5054556;28;19924;-62
2021/05/23 01:33:57;;;;;;;;;;;;;;;9.12;100.00;98318.00;5054583;28;20001;-61
2021/05/23 01:36:22;;;;;;;;;;;;;;;9.20;100.00;98310.84;5054892;28;19917;-62
2021/05/23 01:38:48;;;;;;;;;;;;;;;9.12;100.00;98312.00;5036600;28;19924;-62
2021/05/23 01:41:13;;;;;;;;;;;;;;;9.46;100.00;98318.44;5034381;28;19923;-63
2021/05/23 01:43:39;;;;;;;;;;;;;;;9.02;100.00;98311.50;5031015;28;19970;-62
2021/05/23 01:46:04;;;;;;;;;;;;;;;9.17;100.00;98316.09;5034600;28;20407;-62
2021/05/23 01:48:30;;;;;;;;;;;;;;;9.06;100.00;98320.78;5035828;28;19940;-63
2021/05/23 01:50:56;;;;;;;;;;;;;;;9.06;100.00;98322.53;5039339;28;20369;-62
2021/05/23 01:53:21;;;;;;;;;;;;;;;9.15;100.00;98325.59;5050520;28;19947;-62
2021/05/23 01:55:46;;;;;;;;;;;;;;;9.36;100.00;98325.69;5050618;28;20735;-61
2021/05/23 01:58:12;;;;;;;;;;;;;;;9.15;100.00;98317.88;5054301;28;19921;-62
2021/05/23 02:00:38;;;;;;;;;;;;;;;8.97;100.00;98323.69;5033142;28;19978;-63
2021/05/23 02:03:05;;;;;;;;;;;;;;;8.92;100.00;98312.75;5033777;28;20428;-62
2021/05/23 02:05:30;;;;;;;;;;;;;;;8.99;100.00;98324.47;5053911;28;19967;-63
2021/05/23 02:07:56;;;;;;;;;;;;;;;8.84;100.00;98319.88;5021328;28;20407;-62
2021/05/23 02:10:21;;;;;;;;;;;;;;;9.03;100.00;98323.44;5055311;28;20393;-62
2021/05/23 02:12:47;;;;;;;;;;;;;;;8.86;100.00;98326.66;5056702;28;19925;-62
2021/05/23 02:15:14;;;;;;;;;;;;;;;8.91;100.00;98323.91;5020647;28;20374;-62
2021/05/23 02:17:39;;;;;;;;;;;;;;;9.14;100.00;98320.50;5054759;28;19916;-62
2021/05/23 02:20:05;;;;;;;;;;;;;;;9.00;100.00;98315.88;5052779;28;19982;-63
2021/05/23 02:22:31;;;;;;;;;;;;;;;8.99;100.00;98319.34;5052842;28;19917;-62
2021/05/23 02:24:56;;;;;;;;;;;;;;;8.99;100.00;98317.59;5033649;28;21000;-61
2021/05/23 02:27:21;;;;;;;;;;;;;;;8.97;100.00;98319.38;5055490;28;19928;-62
2021/05/23 02:29:47;;;;;;;;;;;;;;;9.06;100.00;98318.22;5054915;28;19925;-62
2021/05/23 02:32:13;;;;;;;;;;;;;;;9.36;100.00;98313.66;5035902;28;19921;-63
2021/05/23 02:34:45;;;;;;;;;;;;;;;9.14;100.00;98318.75;5032892;28;19913;-62
2021/05/23 02:37:10;;;;;;;;;;;;;;;9.35;100.00;98321.41;5053702;28;19970;-63
2021/05/23 02:39:36;;;;;;;;;;;;;;;9.41;100.00;98318.63;5054167;28;19920;-61
2021/05/23 02:42:01;;;;;;;;;;;;;;;9.43;100.00;98321.97;5052128;28;19927;-62
2021/05/23 02:44:26;;;;;;;;;;;;;;;9.46;100.00;98314.13;5052776;28;19923;-63
2021/05/23 02:46:51;;;;;;;;;;;;;;;9.33;100.00;98311.22;5050494;28;19916;-62
2021/05/23 02:49:17;;;;;;;;;;;;;;;9.66;100.00;98322.81;5054386;28;20349;-62
2021/05/23 02:51:42;;;;;;;;;;;;;;;9.20;100.00;98326.25;5054843;28;19962;-63
2021/05/23 02:54:07;;;;;;;;;;;;;;;9.10;100.00;98330.06;5052729;28;19921;-63
2021/05/23 02:56:33;;;;;;;;;;;;;;;9.19;100.00;98324.59;5053626;28;20457;-63
2021/05/23 02:58:58;;;;;;;;;;;;;;;9.02;100.00;98332.06;5054834;28;19924;-62
2021/05/23 03:01:24;;;;;;;;;;;;;;;8.96;100.00;98337.41;5051948;28;19917;-63
2021/05/23 03:03:49;;;;;;;;;;;;;;;9.04;100.00;98335.41;5055891;28;19917;-63
2021/05/23 03:06:14;;;;;;;;;;;;;;;8.95;100.00;98338.31;5050595;28;20009;-62
2021/05/23 03:08:40;;;;;;;;;;;;;;;9.16;100.00;98334.94;5054928;28;19917;-63
2021/05/23 03:11:05;;;;;;;;;;;;;;;9.14;100.00;98347.00;5053429;28;19928;-62
2021/05/23 03:13:31;;;;;;;;;;;;;;;9.26;100.00;98344.88;5054832;28;19948;-62
2021/05/23 03:15:56;;;;;;;;;;;;;;;9.19;100.00;98350.28;5033432;28;20287;-63
2021/05/23 03:18:21;;;;;;;;;;;;;;;9.00;100.00;98350.09;5054015;28;20013;-62
2021/05/23 03:20:46;;;;;;;;;;;;;;;8.96;100.00;98350.25;5032648;28;19920;-62
2021/05/23 03:23:12;;;;;;;;;;;;;;;9.03;100.00;98354.28;5052841;28;19919;-62
2021/05/23 03:25:38;;;;;;;;;;;;;;;8.89;100.00;98351.38;5056480;28;19998;-63
2021/05/23 03:28:04;;;;;;;;;;;;;;;8.87;100.00;98356.56;5050503;28;19920;-62
2021/05/23 03:30:31;;;;;;;;;;;;;;;9.11;100.00;98346.31;5052897;28;19931;-62
2021/05/23 03:32:56;;;;;;;;;;;;;;;8.90;100.00;98355.63;5054670;28;20001;-62
2021/05/23 03:35:22;;;;;;;;;;;;;;;8.97;100.00;98364.78;5051766;28;20019;-63
2021/05/23 03:37:47;;;;;;;;;;;;;;;9.04;100.00;98371.38;5033854;28;19924;-63
2021/05/23 03:40:15;;;;;;;;;;;;;;;9.09;100.00;98366.91;5032356;28;20884;-62
2021/05/23 03:42:40;;;;;;;;;;;;;;;8.99;100.00;98374.09;5053873;28;20301;-63
2021/05/23 03:45:07;;;;;;;;;;;;;;;8.85;100.00;98370.34;5053305;28;19917;-62
2021/05/23 03:47:32;;;;;;;;;;;;;;;9.04;100.00;98375.69;5032683;28;19920;-62
2021/05/23 03:49:58;;;;;;;;;;;;;;;8.75;100.00;98386.06;5053129;28;20381;-62
2021/05/23 03:52:23;;;;;;;;;;;;;;;8.94;100.00;98385.41;5053829;28;19916;-62
2021/05/23 03:54:48;;;;;;;;;;;;;;;8.94;100.00;98382.84;5051946;28;20114;-61
2021/05/23 03:57:14;;;;;;;;;;;;;;;9.25;100.00;98385.16;5054788;28;19978;-62
2021/05/23 03:59:39;;;;;;;;;;;;;;;9.44;100.00;98390.47;5053578;28;19931;-62
2021/05/23 04:02:04;;;;;;;;;;;;;;;9.37;100.00;98400.16;5052986;28;19921;-62
2021/05/23 04:04:46;;;;;;;;;;;;;;;9.20;100.00;98394.78;5051017;28;20415;-62
2021/05/23 04:07:11;;;;;;;;;;;;;;;9.24;100.00;98398.06;5052707;28;20304;-62
2021/05/23 04:09:37;;;;;;;;;;;;;;;9.29;100.00;98401.31;5051846;28;20058;-62
2021/05/23 04:12:02;;;;;;;;;;;;;;;8.89;100.00;98402.72;5053068;28;19916;-63
2021/05/23 04:14:28;;;;;;;;;;;;;;;9.00;100.00;98413.47;5052926;28;19912;-62
2021/05/23 04:16:54;;;;;;;;;;;;;;;8.94;100.00;98423.94;5050967;28;20300;-62
2021/05/23 04:19:19;;;;;;;;;;;;;;;8.91;100.00;98419.75;5032931;28;19921;-63
2021/05/23 04:21:44;;;;;;;;;;;;;;;9.13;100.00;98416.44;5053430;28;19917;-62
2021/05/23 04:24:10;;;;;;;;;;;;;;;9.17;100.00;98426.56;5052333;28;19924;-63
2021/05/23 04:26:35;;;;;;;;;;;;;;;8.98;100.00;98428.91;5051367;28;19934;-61
2021/05/23 04:29:00;;;;;;;;;;;;;;;8.96;100.00;98429.84;5052944;28;19920;-62
2021/05/23 04:31:26;;;;;;;;;;;;;;;9.02;100.00;98432.22;5054160;28;19947;-62
2021/05/23 04:33:51;;;;;;;;;;;;;;;9.18;100.00;98430.78;5056841;28;19988;-63
2021/05/23 04:36:16;;;;;;;;;;;;;;;9.19;100.00;98432.47;5057367;28;20425;-63
2021/05/23 04:38:41;;;;;;;;;;;;;;;9.06;100.00;98436.38;5056858;28;19917;-63
2021/05/23 04:41:07;;;;;;;;;;;;;;;9.18;100.00;98435.94;5057250;28;19963;-63
2021/05/23 04:43:32;;;;;;;;;;;;;;;9.26;100.00;98442.53;5056769;28;20389;-63
2021/05/23 04:45:58;;;;;;;;;;;;;;;9.04;100.00;98448.44;5056677;28;19916;-62
2021/05/23 04:48:23;;;;;;;;;;;;;;;8.99;100.00;98448.59;5057902;28;19940;-61
2021/05/23 04:50:49;;;;;;;;;;;;;;;9.16;100.00;98453.13;5056260;28;19938;-62
2021/05/23 04:53:15;;;;;;;;;;;;;;;9.03;100.00;98457.00;5055851;28;19923;-62
2021/05/23 04:55:40;;;;;;;;;;;;;;;8.79;100.00;98464.66;5053963;28;19917;-63
2021/05/23 04:58:05;;;;;;;;;;;;;;;9.05;100.00;98468.06;5054014;28;19917;-62
2021/05/23 05:00:31;;;;;;;;;;;;;;;8.99;100.00;98474.28;5057212;28;20082;-62
2021/05/23 05:02:56;;;;;;;;;;;;;;;8.98;100.00;98474.31;5036913;28;20217;-62
2021/05/23 05:05:22;;;;;;;;;;;;;;;9.01;100.00;98484.50;5054040;28;19921;-62
2021/05/23 05:07:47;;;;;;;;;;;;;;;8.86;100.00;98485.84;5053305;28;19920;-62
2021/05/23 05:10:13;;;;;;;;;;;;;;;9.10;100.00;98486.75;5055402;28;19924;-63
2021/05/23 05:12:39;;;;;;;;;;;;;;;9.33;100.00;98492.81;5033149;28;20015;-62
2021/05/23 05:15:05;;;;;;;;;;;;;;;9.28;100.00;98492.13;5054940;28;19943;-63
2021/05/23 05:17:30;;;;;;;;;;;;;;;9.33;100.00;98495.41;5034975;28;19916;-62
2021/05/23 05:19:55;;;;;;;;;;;;;;;8.95;100.00;98500.09;5053828;28;19921;-62
2021/05/23 05:22:21;;;;;;;;;;;;;;;9.19;100.00;98501.00;5054430;28;20530;-62
2021/05/23 05:24:46;;;;;;;;;;;;;;;9.26;100.00;98494.78;5055505;28;20796;-62
2021/05/23 05:27:11;;;;;;;;;;;;;;;9.45;100.00;98504.41;5057070;28;19924;-62
2021/05/23 05:29:37;;;;;;;;;;;;;;;9.21;100.00;98505.22;5056560;28;19921;-62
2021/05/23 05:32:02;;;;;;;;;;;;;;;8.98;100.00;98503.41;5056065;28;20384;-62
2021/05/23 05:34:28;;;;;;;;;;;;;;;8.99;100.00;98502.53;5055683;28;19919;-62
2021/05/23 05:36:53;;;;;;;;;;;;;;;9.05;100.00;98511.72;5019611;28;19924;-62
2021/05/23 05:39:18;;;;;;;;;;;;;;;9.07;100.00;98515.09;5057811;28;19916;-62
2021/05/23 05:41:44;;;;;;;;;;;;;;;9.44;100.00;98511.25;5055380;28;19917;-62
2021/05/23 05:44:09;;;;;;;;;;;;;;;9.14;100.00;98514.00;5053578;28;20389;-62
2021/05/23 05:46:34;;;;;;;;;;;;;;;9.28;100.00;98512.69;5035302;28;19932;-62
2021/05/23 05:48:59;;;;;;;;;;;;;;;9.03;100.00;98516.06;5054967;28;20532;-62
2021/05/23 05:51:25;;;;;;;;;;;;;;;9.11;100.00;98515.84;5035150;28;19916;-62
2021/05/23 05:53:50;;;;;;;;;;;;;;;9.19;100.00;98514.69;5056951;28;19921;-62
2021/05/23 05:56:15;;;;;;;;;;;;;;;9.30;100.00;98516.88;5054784;28;20339;-62
2021/05/23 05:58:41;;;;;;;;;;;;;;;9.11;100.00;98526.94;5054546;28;20381;-62
2021/05/23 06:01:06;;;;;;;;;;;;;;;9.54;100.00;98522.91;5037723;28;19916;-62
2021/05/23 06:03:32;;;;;;;;;;;;;;;9.13;100.00;98525.16;5034864;28;19956;-62
2021/05/23 06:05:57;;;;;;;;;;;;;;;9.55;100.00;98526.31;5051115;28;19927;-62
2021/05/23 06:08:22;;;;;;;;;;;;;;;9.45;100.00;98527.53;5055316;28;20314;-62
2021/05/23 06:10:48;;;;;;;;;;;;;;;9.77;100.00;98526.38;5055799;28;19924;-62
2021/05/23 06:13:14;;;;;;;;;;;;;;;9.37;100.00;98527.78;5055133;28;19951;-62
2021/05/23 06:15:39;;;;;;;;;;;;;;;9.41;100.00;98531.94;5053596;28;20381;-62
2021/05/23 06:18:04;;;;;;;;;;;;;;;9.73;100.00;98529.94;5054112;28;19974;-61
2021/05/23 06:20:29;;;;;;;;;;;;;;;9.56;100.00;98539.09;5052612;28;19971;-62
2021/05/23 06:22:55;;;;;;;;;;;;;;;9.88;100.00;98529.41;5053070;28;19920;-62
2021/05/23 06:25:20;;;;;;;;;;;;;;;9.78;100.00;98538.34;5054791;28;20014;-62
2021/05/23 06:27:46;;;;;;;;;;;;;;;9.60;100.00;98534.69;5055380;28;20336;-62
2021/05/23 06:30:11;;;;;;;;;;;;;;;10.13;100.00;98539.63;5053136;28;19967;-64
2021/05/23 06:32:36;;;;;;;;;;;;;;;10.19;100.00;98538.53;5020730;28;19927;-61
2021/05/23 06:35:02;;;;;;;;;;;;;;;9.68;100.00;98544.72;5057264;28;20325;-61
2021/05/23 06:37:28;;;;;;;;;;;;;;;9.61;100.00;98547.50;5051986;28;19923;-61
2021/05/23 06:39:53;;;;;;;;;;;;;;;10.13;100.00;98549.91;5055380;28;19925;-61
2021/05/23 06:42:19;;;;;;;;;;;;;;;10.04;100.00;98553.66;5055477;28;20027;-61
2021/05/23 06:44:44;;;;;;;;;;;;;;;10.11;100.00;98563.72;5052836;28;19916;-61
2021/05/23 06:47:09;;;;;;;;;;;;;;;9.94;100.00;98566.91;5054276;28;19921;-61
2021/05/23 06:49:35;;;;;;;;;;;;;;;9.82;100.00;98568.19;5054003;28;19913;-62
2021/05/23 06:52:00;;;;;;;;;;;;;;;9.76;100.00;98576.13;5055028;28;20000;-61
2021/05/23 06:54:26;;;;;;;;;;;;;;;10.30;100.00;98577.59;5035054;28;20362;-62
2021/05/23 06:56:51;;;;;;;;;;;;;;;10.71;100.00;98580.31;5051471;28;19983;-62
2021/05/23 06:59:17;;;;;;;;;;;;;;;10.32;100.00;98580.97;5031968;28;20059;-61
2021/05/23 07:01:42;;;;;;;;;;;;;;;10.46;100.00;98583.00;5053766;28;19920;-61
2021/05/23 07:04:07;;;;;;;;;;;;;;;10.38;100.00;98585.88;5054566;28;19962;-61
2021/05/23 07:06:33;;;;;;;;;;;;;;;10.35;100.00;98585.97;5057285;28;20295;-62
2021/05/23 07:08:58;;;;;;;;;;;;;;;10.13;100.00;98585.09;5056523;28;20393;-61
2021/05/23 07:11:23;;;;;;;;;;;;;;;10.07;100.00;98598.19;5056492;28;19916;-61
2021/05/23 07:13:49;;;;;;;;;;;;;;;10.84;100.00;98589.25;5053208;28;20428;-61
2021/05/23 07:16:14;;;;;;;;;;;;;;;11.29;100.00;98597.78;5053017;28;20391;-62
2021/05/23 07:18:39;;;;;;;;;;;;;;;10.99;100.00;98600.69;5052420;28;20320;-61
2021/05/23 07:21:05;;;;;;;;;;;;;;;10.87;100.00;98602.00;5052954;28;19925;-61
2021/05/23 07:23:30;;;;;;;;;;;;;;;10.49;100.00;98606.09;5052372;28;20340;-61
2021/05/23 07:25:56;;;;;;;;;;;;;;;10.03;100.00;98620.59;5032691;28;19920;-62
2021/05/23 07:28:21;;;;;;;;;;;;;;;9.56;100.00;98623.94;5035686;28;19917;-61
2021/05/23 07:30:48;;;;;;;;;;;;;;;10.08;100.00;98633.28;5032574;28;20525;-62
2021/05/23 07:33:15;;;;;;;;;;;;;;;10.18;100.00;98640.63;5016109;28;20059;-62
2021/05/23 07:35:40;;;;;;;;;;;;;;;10.02;100.00;98649.81;5015337;28;20340;-62
2021/05/23 07:38:05;;;;;;;;;;;;;;;9.17;100.00;98654.38;5013626;28;19951;-61
2021/05/23 07:40:31;;;;;;;;;;;;;;;9.84;100.00;98644.41;4996166;28;19951;-62
2021/05/23 07:42:56;;;;;;;;;;;;;;;9.15;100.00;98662.13;4999417;28;20411;-62
2021/05/23 07:45:22;;;;;;;;;;;;;;;9.80;100.00;98658.25;4995474;28;19917;-61
2021/05/23 07:47:47;;;;;;;;;;;;;;;9.26;100.00;98666.06;4998675;28;19921;-62
2021/05/23 07:50:13;;;;;;;;;;;;;;;9.63;100.00;98660.56;5015296;28;20429;-61
2021/05/23 07:52:38;;;;;;;;;;;;;;;10.01;100.00;98654.09;5018673;28;20318;-61
2021/05/23 07:55:04;;;;;;;;;;;;;;;9.90;100.00;98657.94;5014625;28;20298;-61
2021/05/23 07:57:30;;;;;;;;;;;;;;;9.62;100.00;98664.88;5018870;28;20004;-61
2021/05/23 07:59:55;;;;;;;;;;;;;;;9.76;100.00;98668.69;5017687;28;20372;-60
2021/05/23 08:02:21;;;;;;;;;;;;;;;9.78;100.00;98670.34;5015890;28;19921;-61
2021/05/23 08:04:46;;;;;;;;;;;;;;;9.97;100.00;98667.97;5016951;28;20456;-61
2021/05/23 08:07:11;;;;;;;;;;;;;;;9.97;100.00;98677.44;5018078;28;19924;-61
2021/05/23 08:09:37;;;;;;;;;;;;;;;9.82;100.00;98679.59;5001367;28;20386;-61
2021/05/23 08:12:02;;;;;;;;;;;;;;;9.70;100.00;98684.34;5017467;28;20040;-61
2021/05/23 08:14:28;;;;;;;;;;;;;;;9.66;100.00;98682.75;5000981;28;19914;-61
2021/05/23 08:16:53;;;;;;;;;;;;;;;9.83;100.00;98685.63;5020824;28;20623;-60
2021/05/23 08:19:19;;;;;;;;;;;;;;;9.95;100.00;98686.94;5002590;28;19921;-61
2021/05/23 08:21:45;;;;;;;;;;;;;;;9.51;100.00;98695.25;5002842;28;19921;-61
2021/05/23 08:24:11;;;;;;;;;;;;;;;9.76;100.00;98692.69;5019852;28;19967;-61
2021/05/23 08:26:36;;;;;;;;;;;;;;;10.32;100.00;98689.06;5019704;28;20310;-61
2021/05/23 08:29:02;;;;;;;;;;;;;;;10.20;100.00;98697.19;5020028;28;19919;-62
2021/05/23 08:31:27;;;;;;;;;;;;;;;10.30;100.00;98700.31;5049560;28;19948;-61
2021/05/23 08:33:53;;;;;;;;;;;;;;;10.06;100.00;98707.97;5056404;28;19920;-61
2021/05/23 08:36:18;;;;;;;;;;;;;;;10.00;100.00;98714.16;5055570;28;20365;-61
2021/05/23 08:38:43;;;;;;;;;;;;;;;9.60;100.00;98719.78;5054375;28;20397;-61
2021/05/23 08:41:09;;;;;;;;;;;;;;;10.18;100.00;98717.84;5058858;28;19917;-61
2021/05/23 08:43:35;;;;;;;;;;;;;;;9.88;100.00;98719.72;5057029;28;21317;-62
2021/05/23 08:46:01;;;;;;;;;;;;;;;10.22;100.00;98713.44;5054609;28;20003;-61
2021/05/23 08:48:26;;;;;;;;;;;;;;;10.55;100.00;98715.72;5019893;28;19917;-61
2021/05/23 08:50:52;;;;;;;;;;;;;;;10.98;100.00;98716.69;5038033;28;19967;-61
2021/05/23 08:53:17;;;;;;;;;;;;;;;10.91;100.00;98723.81;5056133;28;19924;-62
2021/05/23 08:55:44;;;;;;;;;;;;;;;11.27;100.00;98721.56;5035659;28;19951;-63
2021/05/23 08:58:09;;;;;;;;;;;;;;;11.53;100.00;98727.41;5057760;28;19935;-63
2021/05/23 09:00:35;;;;;;;;;;;;;;;11.57;100.00;98723.81;5054827;28;20385;-63
2021/05/23 09:03:05;;;;;;;;;;;;;;;12.20;100.00;98728.09;5056097;28;19940;-63
2021/05/23 09:05:35;;;;;;;;;;;;;;;11.92;100.00;98734.44;5039631;28;20293;-63
2021/05/23 09:08:01;;;;;;;;;;;;;;;11.67;100.00;98730.25;5055930;28;19920;-63
2021/05/23 09:10:31;;;;;;;;;;;;;;;11.98;100.00;98733.38;5052775;28;19917;-63
2021/05/23 09:12:56;;;;;;;;;;;;;;;11.83;100.00;98739.97;5020080;28;20421;-63
2021/05/23 09:15:21;;;;;;;;;;;;;;;13.13;100.00;98720.50;5055707;28;20003;-63
2021/05/23 09:17:47;;;;;;;;;;;;;;;12.89;100.00;98733.66;5053685;28;19966;-63
2021/05/23 09:20:16;;;;;;;;;;;;;;;12.67;100.00;98738.13;5037151;28;19924;-63
2021/05/23 09:22:42;;;;;;;;;;;;;;;12.35;100.00;98742.94;5038449;28;20373;-63
2021/05/23 09:25:09;;;;;;;;;;;;;;;13.67;100.00;98742.09;5056114;28;19924;-64
2021/05/23 09:27:35;;;;;;;;;;;;;;;13.16;100.00;98746.22;5055794;28;19960;-61
2021/05/23 09:30:03;;;;;;;;;;;;;;;13.20;100.00;98737.38;5036914;28;19932;-62
2021/05/23 09:32:29;;;;;;;;;;;;;;;12.68;100.00;98745.81;5057249;28;19999;-61
2021/05/23 09:35:01;;;;;;;;;;;;;;;12.77;100.00;98752.28;5018610;28;20011;-62
2021/05/23 09:37:26;;;;;;;;;;;;;;;13.70;100.00;98759.19;5055181;28;19920;-61
2021/05/23 09:39:52;;;;;;;;;;;;;;;14.12;100.00;98747.66;5035481;28;20374;-61
2021/05/23 09:42:17;;;;;;;;;;;;;;;13.45;100.00;98754.38;5056995;28;19924;-64
2021/05/23 09:44:42;;;;;;;;;;;;;;;13.75;100.00;98750.31;5036309;28;20270;-62
2021/05/23 09:47:10;;;;;;;;;;;;;;;14.38;100.00;98754.09;5057600;28;19924;-62
2021/05/23 09:49:40;;;;;;;;;;;;;;;14.50;100.00;98753.44;5056421;28;19924;-61
2021/05/23 09:52:06;;;;;;;;;;;;;;;13.81;100.00;98760.34;5056349;28;19913;-60
2021/05/23 09:54:42;;;;;;;;;;;;;;;13.69;100.00;98765.31;5054369;28;19927;-62
2021/05/23 09:57:11;;;;;;;;;;;;;;;13.57;100.00;98771.88;5035885;28;20201;-62
2021/05/23 09:59:36;;;;;;;;;;;;;;;14.25;100.00;98768.56;5057295;28;19917;-62
2021/05/23 10:02:05;;;;;;;;;;;;;;;13.57;100.00;98777.91;5054417;28;20274;-61
2021/05/23 10:04:31;;;;;;;;;;;;;;;13.51;94.04;98778.19;5052577;28;20019;-61
2021/05/23 10:07:02;;;;;;;;;;;;;;;14.21;95.73;98779.09;5057171;28;19920;-62
2021/05/23 10:09:28;;;;;;;;;;;;;;;15.25;95.74;98788.34;5053951;28;19924;-61
2021/05/23 10:11:53;;;;;;;;;;;;;;;15.47;99.63;98769.84;5037663;28;19923;-61
2021/05/23 10:14:19;;;;;;;;;;;;;;;13.74;86.25;98787.44;5057997;28;20334;-62
2021/05/23 10:16:49;;;;;;;;;;;;;;;13.68;91.85;98795.50;5054399;28;19924;-62
2021/05/23 10:19:15;;;;;;;;;;;;;;;14.09;92.17;98794.41;5052220;28;20426;-62
2021/05/23 10:21:40;;;;;;;;;;;;;;;14.40;86.81;98797.13;5054498;28;19912;-62
2021/05/23 10:24:06;;;;;;;;;;;;;;;15.52;87.38;98789.53;5053624;28;19912;-62
2021/05/23 10:26:32;;;;;;;;;;;;;;;15.34;87.32;98794.81;5021192;28;19916;-62
2021/05/23 10:28:59;;;;;;;;;;;;;;;14.97;87.19;98794.19;5052562;28;19944;-62
2021/05/23 10:31:31;;;;;;;;;;;;;;;14.81;81.91;98785.56;5053804;28;20025;-62
2021/05/23 10:33:57;;;;;;;;;;;;;;;15.31;82.56;98810.53;5036333;28;20003;-62
2021/05/23 10:36:37;;;;;;;;;;;;;;;14.82;83.57;98811.41;5037138;28;20042;-62
2021/05/23 10:39:04;;;;;;;;;;;;;;;15.17;81.79;98810.47;5017554;28;19931;-63
2021/05/23 10:41:30;;;;;;;;;;;;;;;15.24;76.96;98802.25;5054198;28;20392;-62
2021/05/23 10:44:00;;;;;;;;;;;;;;;14.12;81.84;98817.56;5038237;28;19922;-61
2021/05/23 10:46:25;;;;;;;;;;;;;;;13.38;84.29;98824.50;5032257;28;19961;-62
2021/05/23 10:48:57;;;;;;;;;;;;;;;14.01;86.19;98818.09;5054998;28;19995;-62
2021/05/23 10:51:23;;;;;;;;;;;;;;;13.64;88.64;98831.94;5053594;28;19916;-62
2021/05/23 10:53:48;;;;;;;;;;;;;;;13.80;89.67;98825.16;5034464;28;20322;-62
2021/05/23 10:56:24;;;;;;;;;;;;;;;14.62;80.64;98820.22;5053560;28;19964;-62
2021/05/23 10:58:50;;;;;;;;;;;;;;;14.19;81.24;98832.72;5059250;28;19919;-62
2021/05/23 11:01:18;;;;;;;;;;;;;;;15.28;71.95;98823.69;5055722;28;19920;-62
2021/05/23 11:03:43;;;;;;;;;;;;;;;15.14;75.08;98829.59;5008569;28;19912;-61
2021/05/23 11:06:08;;;;;;;;;;;;;;;14.06;75.59;98842.00;5037097;28;20289;-62
2021/05/23 11:08:34;;;;;;;;;;;;;;;13.75;79.82;98842.63;5056409;28;20024;-62
2021/05/23 11:11:00;;;;;;;;;;;;;;;13.13;74.81;98842.00;5055027;28;19927;-62
2021/05/23 11:13:25;;;;;;;;;;;;;;;14.14;84.02;98834.72;5035935;28;19917;-62
2021/05/23 11:15:51;;;;;;;;;;;;;;;14.37;85.24;98835.31;5056508;28;19935;-62
2021/05/23 11:18:20;;;;;;;;;;;;;;;14.28;80.99;98833.16;5055515;28;20534;-62
2021/05/23 11:20:55;;;;;;;;;;;;;;;13.11;78.60;98839.50;5054812;28;20390;-62
2021/05/23 11:23:21;;;;;;;;;;;;;;;14.35;80.20;98831.97;5057317;28;20404;-62
2021/05/23 11:25:48;;;;;;;;;;;;;;;13.87;76.65;98831.72;5037958;28;19912;-63
2021/05/23 11:28:18;;;;;;;;;;;;;;;14.19;78.96;98826.72;5034275;28;19940;-62
2021/05/23 11:30:43;;;;;;;;;;;;;;;15.69;70.25;98805.84;5035636;28;19926;-63
2021/05/23 11:33:13;;;;;;;;;;;;;;;14.81;73.31;98824.47;5034207;28;20389;-63
2021/05/23 11:35:40;;;;;;;;;;;;;;;14.78;76.77;98820.28;5034337;28;19923;-62
2021/05/23 11:38:06;;;;;;;;;;;;;;;14.36;82.51;98828.44;5055259;28;20441;-62
2021/05/23 11:40:36;;;;;;;;;;;;;;;14.60;78.38;98824.66;5037094;28;19916;-63
2021/05/23 11:43:11;;;;;;;;;;;;;;;14.85;72.83;98825.97;5037515;28;19919;-62
2021/05/23 11:45:36;;;;;;;;;;;;;;;14.92;69.96;98823.91;5041366;28;20404;-62
2021/05/23 11:48:06;;;;;;;;;;;;;;;15.17;75.85;98826.03;5036838;28;19913;-62
2021/05/23 11:50:31;;;;;;;;;;;;;;;15.52;67.30;98824.09;5056292;28;19919;-62
2021/05/23 11:52:57;;;;;;;;;;;;;;;15.48;76.34;98805.25;5039089;28;20007;-62
2021/05/23 11:55:24;;;;;;;;;;;;;;;14.91;66.43;98812.66;5058130;28;19927;-62
2021/05/23 11:57:52;;;;;;;;;;;;;;;14.89;68.39;98806.72;5058914;28;19921;-62
2021/05/23 12:00:18;;;;;;;;;;;;;;;15.13;74.72;98809.78;5057329;28;20466;-62
2021/05/23 12:02:47;;;;;;;;;;;;;;;15.91;67.80;98816.81;5055635;28;19917;-62
2021/05/23 12:05:12;;;;;;;;;;;;;;;15.11;70.57;98819.41;5036073;28;20377;-62
2021/05/23 12:07:38;;;;;;;;;;;;;;;15.01;74.31;98821.66;5057205;28;19919;-62
2021/05/23 12:10:04;;;;;;;;;;;;;;;14.44;72.42;98826.31;5034002;28;20336;-63
2021/05/23 12:12:29;;;;;;;;;;;;;;;14.57;69.88;98822.22;5037791;28;19938;-62
2021/05/23 12:14:55;;;;;;;;;;;;;;;13.97;74.61;98819.97;5036301;28;19994;-62
2021/05/23 12:17:20;;;;;;;;;;;;;;;13.21;75.99;98821.81;5038601;28;20336;-62
2021/05/23 12:22:12;;;;;;;;;;;;;;;13.17;75.83;98830.63;5058054;28;19916;-61
2021/05/23 12:24:38;;;;;;;;;;;;;;;13.78;76.58;98822.63;5055187;28;19920;-62
2021/05/23 12:27:03;;;;;;;;;;;;;;;13.10;78.04;98821.47;5053144;28;19924;-62
2021/05/23 12:29:28;;;;;;;;;;;;;;;14.07;69.44;98828.16;5058963;28;20406;-62
2021/05/23 12:31:54;;;;;;;;;;;;;;;15.31;71.48;98817.50;5052533;28;19925;-62
2021/05/23 12:34:19;;;;;;;;;;;;;;;16.02;64.18;98806.63;5055122;28;20404;-61
2021/05/23 12:36:44;;;;;;;;;;;;;;;16.19;62.50;98806.47;5035362;28;20110;-62
2021/05/23 12:39:10;;;;;;;;;;;;;;;15.64;64.39;98802.66;5057222;28;20281;-62
2021/05/23 12:41:39;;;;;;;;;;;;;;;14.35;72.77;98819.84;5054540;28;19925;-62